Goldbond, Virginia
Current Conditions -  °F | °C
As of 9:35 AM on Tuesday 27 Jan 2015 (Local Time) from KPSK Reporting Station
Clear Clear  
Wind Chill: 20°   Ceiling: Unl
Heat Index: 28°   Visibility: 10mi
Dew Point: 13°   Wind: 8mph
Humidity: 53%   Direction: 320°NW
Pressure: 29.84"   Gusts: NA
Location:  37.38°N, 80.66°W
Report Text: KPSK 271435Z AUTO 32007KT 10SM CLR M02/M11 A2984 RMK AO2 T10241108
Loading
Personal Weather Stations






























Interactive Weather Map New forecast layout! Learn more

10-Day Weather Forecast

Advertisements
Track Severe Weather on mobile